sensor_id;sensor_type;location;lat;lon;timestamp;P1;durP1;ratioP1;P2;durP2;ratioP2
17917;SDS011;9084;50.956;3.106;2023-04-02T00:01:18;14.37;;;7.90;;
17917;SDS011;9084;50.956;3.106;2023-04-02T00:09:16;10.32;;;5.93;;
17917;SDS011;9084;50.956;3.106;2023-04-02T00:11:49;14.83;;;5.57;;
17917;SDS011;9084;50.956;3.106;2023-04-02T00:16:54;15.32;;;7.13;;
17917;SDS011;9084;50.956;3.106;2023-04-02T00:19:45;15.95;;;6.50;;
17917;SDS011;9084;50.956;3.106;2023-04-02T00:22:15;15.30;;;7.00;;
17917;SDS011;9084;50.956;3.106;2023-04-02T00:24:44;15.73;;;6.03;;
17917;SDS011;9084;50.956;3.106;2023-04-02T00:27:11;13.77;;;7.30;;
17917;SDS011;9084;50.956;3.106;2023-04-02T00:29:49;9.25;;;4.80;;
17917;SDS011;9084;50.956;3.106;2023-04-02T00:32:21;10.80;;;5.18;;
17917;SDS011;9084;50.956;3.106;2023-04-02T00:34:50;10.40;;;5.27;;
17917;SDS011;9084;50.956;3.106;2023-04-02T00:37:18;11.50;;;6.07;;
17917;SDS011;9084;50.956;3.106;2023-04-02T00:39:52;11.03;;;5.83;;
17917;SDS011;9084;50.956;3.106;2023-04-02T00:42:22;12.23;;;5.50;;
17917;SDS011;9084;50.956;3.106;2023-04-02T00:44:49;12.93;;;5.97;;
17917;SDS011;9084;50.956;3.106;2023-04-02T00:47:19;8.20;;;5.67;;
17917;SDS011;9084;50.956;3.106;2023-04-02T00:49:49;9.47;;;5.40;;
17917;SDS011;9084;50.956;3.106;2023-04-02T00:52:29;10.53;;;4.97;;
17917;SDS011;9084;50.956;3.106;2023-04-02T00:57:42;8.97;;;5.30;;
17917;SDS011;9084;50.956;3.106;2023-04-02T01:05:46;12.03;;;6.60;;
17917;SDS011;9084;50.956;3.106;2023-04-02T01:12:14;9.80;;;6.90;;
17917;SDS011;9084;50.956;3.106;2023-04-02T01:22:12;7.15;;;5.47;;
17917;SDS011;9084;50.956;3.106;2023-04-02T01:25:01;10.48;;;5.80;;
17917;SDS011;9084;50.956;3.106;2023-04-02T01:27:40;7.60;;;5.47;;
17917;SDS011;9084;50.956;3.106;2023-04-02T01:30:34;9.87;;;7.00;;
17917;SDS011;9084;50.956;3.106;2023-04-02T01:33:04;10.07;;;7.07;;
17917;SDS011;9084;50.956;3.106;2023-04-02T01:35:32;7.50;;;5.60;;
17917;SDS011;9084;50.956;3.106;2023-04-02T01:38:20;8.75;;;6.55;;
17917;SDS011;9084;50.956;3.106;2023-04-02T01:41:00;7.03;;;6.30;;
17917;SDS011;9084;50.956;3.106;2023-04-02T01:43:56;6.83;;;5.37;;
17917;SDS011;9084;50.956;3.106;2023-04-02T01:46:32;11.07;;;6.15;;
17917;SDS011;9084;50.956;3.106;2023-04-02T01:49:00;7.93;;;6.63;;
17917;SDS011;9084;50.956;3.106;2023-04-02T01:51:34;11.10;;;7.70;;
17917;SDS011;9084;50.956;3.106;2023-04-02T01:54:03;8.00;;;6.57;;
17917;SDS011;9084;50.956;3.106;2023-04-02T01:56:30;9.37;;;6.23;;
17917;SDS011;9084;50.956;3.106;2023-04-02T01:58:56;10.37;;;6.97;;
17917;SDS011;9084;50.956;3.106;2023-04-02T02:01:25;7.38;;;6.68;;
17917;SDS011;9084;50.956;3.106;2023-04-02T02:04:00;9.60;;;6.83;;
17917;SDS011;9084;50.956;3.106;2023-04-02T02:06:26;8.33;;;6.47;;
17917;SDS011;9084;50.956;3.106;2023-04-02T02:11:25;8.63;;;6.32;;
17917;SDS011;9084;50.956;3.106;2023-04-02T02:16:25;8.27;;;7.10;;
17917;SDS011;9084;50.956;3.106;2023-04-02T02:18:54;10.97;;;7.40;;
17917;SDS011;9084;50.956;3.106;2023-04-02T02:21:40;8.13;;;6.83;;
17917;SDS011;9084;50.956;3.106;2023-04-02T02:24:22;10.97;;;7.97;;
17917;SDS011;9084;50.956;3.106;2023-04-02T02:29:47;11.07;;;7.10;;
17917;SDS011;9084;50.956;3.106;2023-04-02T02:32:17;7.13;;;6.00;;
17917;SDS011;9084;50.956;3.106;2023-04-02T02:35:03;10.20;;;6.60;;
17917;SDS011;9084;50.956;3.106;2023-04-02T02:37:39;8.57;;;6.63;;
17917;SDS011;9084;50.956;3.106;2023-04-02T02:40:26;9.03;;;7.50;;
17917;SDS011;9084;50.956;3.106;2023-04-02T02:43:00;10.20;;;6.70;;
17917;SDS011;9084;50.956;3.106;2023-04-02T02:45:35;9.47;;;6.53;;
17917;SDS011;9084;50.956;3.106;2023-04-02T02:48:03;8.33;;;6.93;;
17917;SDS011;9084;50.956;3.106;2023-04-02T02:50:33;7.77;;;6.93;;
17917;SDS011;9084;50.956;3.106;2023-04-02T02:53:14;9.77;;;6.87;;
17917;SDS011;9084;50.956;3.106;2023-04-02T02:55:54;9.63;;;7.50;;
17917;SDS011;9084;50.956;3.106;2023-04-02T02:58:27;7.80;;;6.40;;
17917;SDS011;9084;50.956;3.106;2023-04-02T03:00:56;8.30;;;7.50;;
17917;SDS011;9084;50.956;3.106;2023-04-02T03:03:23;11.97;;;9.10;;
17917;SDS011;9084;50.956;3.106;2023-04-02T03:06:00;9.77;;;7.60;;
17917;SDS011;9084;50.956;3.106;2023-04-02T03:08:33;11.93;;;8.10;;
17917;SDS011;9084;50.956;3.106;2023-04-02T03:11:22;12.77;;;7.40;;
17917;SDS011;9084;50.956;3.106;2023-04-02T03:14:10;9.17;;;7.13;;
17917;SDS011;9084;50.956;3.106;2023-04-02T03:16:49;10.50;;;6.67;;
17917;SDS011;9084;50.956;3.106;2023-04-02T03:24:55;7.00;;;5.77;;
17917;SDS011;9084;50.956;3.106;2023-04-02T03:27:35;9.33;;;6.53;;
17917;SDS011;9084;50.956;3.106;2023-04-02T03:32:46;10.03;;;5.93;;
17917;SDS011;9084;50.956;3.106;2023-04-02T03:37:47;8.73;;;5.97;;
17917;SDS011;9084;50.956;3.106;2023-04-02T03:40:24;8.80;;;6.03;;
17917;SDS011;9084;50.956;3.106;2023-04-02T03:42:55;7.27;;;6.13;;
17917;SDS011;9084;50.956;3.106;2023-04-02T03:45:32;11.93;;;6.80;;
17917;SDS011;9084;50.956;3.106;2023-04-02T03:51:27;11.17;;;7.57;;
17917;SDS011;9084;50.956;3.106;2023-04-02T03:53:54;7.93;;;6.40;;
17917;SDS011;9084;50.956;3.106;2023-04-02T03:59:04;7.53;;;5.63;;
17917;SDS011;9084;50.956;3.106;2023-04-02T04:01:42;8.83;;;6.63;;
17917;SDS011;9084;50.956;3.106;2023-04-02T04:04:16;8.40;;;5.90;;
17917;SDS011;9084;50.956;3.106;2023-04-02T04:06:47;8.27;;;6.27;;
17917;SDS011;9084;50.956;3.106;2023-04-02T04:11:54;10.10;;;7.63;;
17917;SDS011;9084;50.956;3.106;2023-04-02T04:14:31;9.50;;;7.37;;
17917;SDS011;9084;50.956;3.106;2023-04-02T04:24:38;6.97;;;5.60;;
17917;SDS011;9084;50.956;3.106;2023-04-02T04:30:05;6.70;;;5.40;;
17917;SDS011;9084;50.956;3.106;2023-04-02T04:32:47;7.20;;;5.40;;
17917;SDS011;9084;50.956;3.106;2023-04-02T04:38:11;7.70;;;5.00;;
17917;SDS011;9084;50.956;3.106;2023-04-02T04:46:12;7.33;;;5.47;;
17917;SDS011;9084;50.956;3.106;2023-04-02T04:48:55;8.10;;;5.43;;
17917;SDS011;9084;50.956;3.106;2023-04-02T04:51:44;6.93;;;6.10;;
17917;SDS011;9084;50.956;3.106;2023-04-02T04:54:30;8.70;;;6.13;;
17917;SDS011;9084;50.956;3.106;2023-04-02T04:56:59;8.83;;;6.97;;
17917;SDS011;9084;50.956;3.106;2023-04-02T04:59:31;7.77;;;6.37;;
17917;SDS011;9084;50.956;3.106;2023-04-02T05:04:51;7.13;;;6.37;;
17917;SDS011;9084;50.956;3.106;2023-04-02T05:07:22;6.53;;;5.93;;
17917;SDS011;9084;50.956;3.106;2023-04-02T05:17:30;8.40;;;6.20;;
17917;SDS011;9084;50.956;3.106;2023-04-02T05:20:28;9.80;;;6.30;;
17917;SDS011;9084;50.956;3.106;2023-04-02T05:23:02;8.13;;;5.30;;
17917;SDS011;9084;50.956;3.106;2023-04-02T05:25:37;9.33;;;6.03;;
17917;SDS011;9084;50.956;3.106;2023-04-02T05:28:39;8.13;;;5.83;;
17917;SDS011;9084;50.956;3.106;2023-04-02T05:31:59;9.13;;;6.13;;
17917;SDS011;9084;50.956;3.106;2023-04-02T05:34:12;9.27;;;5.90;;
17917;SDS011;9084;50.956;3.106;2023-04-02T05:36:46;7.60;;;5.97;;
17917;SDS011;9084;50.956;3.106;2023-04-02T05:39:15;9.10;;;5.33;;
17917;SDS011;9084;50.956;3.106;2023-04-02T05:41:55;7.47;;;6.00;;
17917;SDS011;9084;50.956;3.106;2023-04-02T05:44:27;7.47;;;6.10;;
17917;SDS011;9084;50.956;3.106;2023-04-02T05:52:06;8.75;;;5.55;;
17917;SDS011;9084;50.956;3.106;2023-04-02T05:54:39;6.30;;;5.20;;
17917;SDS011;9084;50.956;3.106;2023-04-02T05:57:22;7.20;;;5.60;;
17917;SDS011;9084;50.956;3.106;2023-04-02T06:00:03;6.93;;;5.10;;
17917;SDS011;9084;50.956;3.106;2023-04-02T06:02:35;7.43;;;5.50;;
17917;SDS011;9084;50.956;3.106;2023-04-02T06:05:16;6.80;;;6.17;;
17917;SDS011;9084;50.956;3.106;2023-04-02T06:08:29;6.93;;;5.10;;
17917;SDS011;9084;50.956;3.106;2023-04-02T06:10:44;6.90;;;4.90;;
17917;SDS011;9084;50.956;3.106;2023-04-02T06:13:19;6.90;;;5.53;;
17917;SDS011;9084;50.956;3.106;2023-04-02T06:15:45;9.03;;;6.13;;
17917;SDS011;9084;50.956;3.106;2023-04-02T06:18:20;7.20;;;6.47;;
17917;SDS011;9084;50.956;3.106;2023-04-02T06:20:49;10.67;;;6.47;;
17917;SDS011;9084;50.956;3.106;2023-04-02T06:23:16;6.63;;;5.43;;
17917;SDS011;9084;50.956;3.106;2023-04-02T06:28:39;11.00;;;5.90;;
17917;SDS011;9084;50.956;3.106;2023-04-02T06:31:19;7.90;;;6.17;;
17917;SDS011;9084;50.956;3.106;2023-04-02T06:34:05;6.93;;;6.10;;
17917;SDS011;9084;50.956;3.106;2023-04-02T06:36:37;7.33;;;6.17;;
17917;SDS011;9084;50.956;3.106;2023-04-02T06:39:06;5.77;;;5.23;;
17917;SDS011;9084;50.956;3.106;2023-04-02T06:41:46;7.57;;;5.47;;
17917;SDS011;9084;50.956;3.106;2023-04-02T06:44:22;6.67;;;5.97;;
17917;SDS011;9084;50.956;3.106;2023-04-02T06:46:59;9.02;;;6.30;;
17917;SDS011;9084;50.956;3.106;2023-04-02T06:49:45;8.37;;;7.20;;
17917;SDS011;9084;50.956;3.106;2023-04-02T06:52:36;10.57;;;7.63;;
17917;SDS011;9084;50.956;3.106;2023-04-02T06:55:32;7.97;;;7.27;;
17917;SDS011;9084;50.956;3.106;2023-04-02T06:58:05;8.03;;;7.43;;
17917;SDS011;9084;50.956;3.106;2023-04-02T07:00:36;9.07;;;8.10;;
17917;SDS011;9084;50.956;3.106;2023-04-02T07:03:13;10.27;;;8.67;;
17917;SDS011;9084;50.956;3.106;2023-04-02T07:05:41;9.10;;;8.30;;
17917;SDS011;9084;50.956;3.106;2023-04-02T07:08:09;12.07;;;10.43;;
17917;SDS011;9084;50.956;3.106;2023-04-02T07:10:37;16.30;;;9.30;;
17917;SDS011;9084;50.956;3.106;2023-04-02T07:13:03;10.23;;;9.37;;
17917;SDS011;9084;50.956;3.106;2023-04-02T07:15:29;10.33;;;9.43;;
17917;SDS011;9084;50.956;3.106;2023-04-02T07:17:58;8.77;;;8.07;;
17917;SDS011;9084;50.956;3.106;2023-04-02T07:20:30;11.00;;;9.82;;
17917;SDS011;9084;50.956;3.106;2023-04-02T07:23:05;10.00;;;9.13;;
17917;SDS011;9084;50.956;3.106;2023-04-02T07:25:32;8.40;;;7.70;;
17917;SDS011;9084;50.956;3.106;2023-04-02T07:28:00;8.13;;;7.37;;
17917;SDS011;9084;50.956;3.106;2023-04-02T07:30:28;9.50;;;7.20;;
17917;SDS011;9084;50.956;3.106;2023-04-02T07:32:56;8.03;;;7.33;;
17917;SDS011;9084;50.956;3.106;2023-04-02T07:35:26;7.97;;;7.17;;
17917;SDS011;9084;50.956;3.106;2023-04-02T07:37:52;9.60;;;7.47;;
17917;SDS011;9084;50.956;3.106;2023-04-02T07:40:18;8.52;;;7.10;;
17917;SDS011;9084;50.956;3.106;2023-04-02T07:42:46;7.83;;;7.13;;
17917;SDS011;9084;50.956;3.106;2023-04-02T07:45:12;8.53;;;7.70;;
17917;SDS011;9084;50.956;3.106;2023-04-02T07:47:38;8.30;;;7.60;;
17917;SDS011;9084;50.956;3.106;2023-04-02T07:50:09;7.67;;;6.90;;
17917;SDS011;9084;50.956;3.106;2023-04-02T07:52:37;8.47;;;7.23;;
17917;SDS011;9084;50.956;3.106;2023-04-02T07:55:06;10.83;;;6.83;;
17917;SDS011;9084;50.956;3.106;2023-04-02T07:57:40;8.83;;;7.67;;
17917;SDS011;9084;50.956;3.106;2023-04-02T08:00:15;7.87;;;7.07;;
17917;SDS011;9084;50.956;3.106;2023-04-02T08:02:41;7.50;;;6.63;;
17917;SDS011;9084;50.956;3.106;2023-04-02T08:05:08;8.20;;;7.33;;
17917;SDS011;9084;50.956;3.106;2023-04-02T08:07:34;7.90;;;7.20;;
17917;SDS011;9084;50.956;3.106;2023-04-02T08:10:00;9.13;;;7.93;;
17917;SDS011;9084;50.956;3.106;2023-04-02T08:12:27;7.87;;;7.10;;
17917;SDS011;9084;50.956;3.106;2023-04-02T08:14:56;8.93;;;8.02;;
17917;SDS011;9084;50.956;3.106;2023-04-02T08:17:22;9.47;;;8.63;;
17917;SDS011;9084;50.956;3.106;2023-04-02T08:19:50;8.57;;;7.93;;
17917;SDS011;9084;50.956;3.106;2023-04-02T08:22:15;8.90;;;8.00;;
17917;SDS011;9084;50.956;3.106;2023-04-02T08:24:44;9.38;;;8.32;;
17917;SDS011;9084;50.956;3.106;2023-04-02T08:27:12;8.00;;;7.37;;
17917;SDS011;9084;50.956;3.106;2023-04-02T08:29:40;8.87;;;7.07;;
17917;SDS011;9084;50.956;3.106;2023-04-02T08:32:06;9.20;;;8.13;;
17917;SDS011;9084;50.956;3.106;2023-04-02T08:34:35;8.43;;;7.18;;
17917;SDS011;9084;50.956;3.106;2023-04-02T08:37:00;7.93;;;7.13;;
17917;SDS011;9084;50.956;3.106;2023-04-02T08:39:28;7.88;;;7.25;;
17917;SDS011;9084;50.956;3.106;2023-04-02T08:42:06;8.33;;;6.87;;
17917;SDS011;9084;50.956;3.106;2023-04-02T08:47:18;6.40;;;5.83;;
17917;SDS011;9084;50.956;3.106;2023-04-02T08:49:52;4.80;;;4.50;;
17917;SDS011;9084;50.956;3.106;2023-04-02T08:52:30;5.40;;;5.00;;
17917;SDS011;9084;50.956;3.106;2023-04-02T08:55:00;4.17;;;3.87;;
17917;SDS011;9084;50.956;3.106;2023-04-02T08:57:40;6.57;;;4.67;;
17917;SDS011;9084;50.956;3.106;2023-04-02T09:00:34;4.77;;;4.37;;
17917;SDS011;9084;50.956;3.106;2023-04-02T09:05:47;4.77;;;4.37;;
17917;SDS011;9084;50.956;3.106;2023-04-02T09:08:16;4.28;;;3.95;;
17917;SDS011;9084;50.956;3.106;2023-04-02T09:10:59;4.83;;;4.43;;
17917;SDS011;9084;50.956;3.106;2023-04-02T09:13:28;4.83;;;4.43;;
17917;SDS011;9084;50.956;3.106;2023-04-02T09:18:30;4.70;;;4.30;;
17917;SDS011;9084;50.956;3.106;2023-04-02T09:20:58;5.20;;;4.70;;
17917;SDS011;9084;50.956;3.106;2023-04-02T09:23:44;4.90;;;4.50;;
17917;SDS011;9084;50.956;3.106;2023-04-02T09:31:43;5.63;;;5.03;;
17917;SDS011;9084;50.956;3.106;2023-04-02T09:34:35;5.40;;;4.65;;
17917;SDS011;9084;50.956;3.106;2023-04-02T09:37:11;4.88;;;4.47;;
17917;SDS011;9084;50.956;3.106;2023-04-02T09:39:42;5.00;;;4.43;;
17917;SDS011;9084;50.956;3.106;2023-04-02T09:42:27;5.32;;;4.80;;
17917;SDS011;9084;50.956;3.106;2023-04-02T09:45:22;4.70;;;4.30;;
17917;SDS011;9084;50.956;3.106;2023-04-02T09:47:48;6.15;;;4.13;;
17917;SDS011;9084;50.956;3.106;2023-04-02T09:52:49;4.00;;;3.60;;
17917;SDS011;9084;50.956;3.106;2023-04-02T09:55:27;4.13;;;3.83;;
17917;SDS011;9084;50.956;3.106;2023-04-02T09:58:06;4.28;;;3.88;;
17917;SDS011;9084;50.956;3.106;2023-04-02T10:00:36;4.07;;;3.78;;
17917;SDS011;9084;50.956;3.106;2023-04-02T10:03:06;4.23;;;3.90;;
17917;SDS011;9084;50.956;3.106;2023-04-02T10:06:03;4.22;;;3.92;;
17917;SDS011;9084;50.956;3.106;2023-04-02T10:08:38;4.70;;;4.28;;
17917;SDS011;9084;50.956;3.106;2023-04-02T10:11:38;4.57;;;4.18;;
17917;SDS011;9084;50.956;3.106;2023-04-02T10:13:59;7.40;;;5.72;;
17917;SDS011;9084;50.956;3.106;2023-04-02T10:16:32;5.68;;;5.18;;
17917;SDS011;9084;50.956;3.106;2023-04-02T10:21:40;8.02;;;7.10;;
17917;SDS011;9084;50.956;3.106;2023-04-02T10:24:11;7.93;;;6.70;;
17917;SDS011;9084;50.956;3.106;2023-04-02T10:26:42;7.07;;;6.15;;
17917;SDS011;9084;50.956;3.106;2023-04-02T10:34:24;6.45;;;5.20;;
17917;SDS011;9084;50.956;3.106;2023-04-02T10:40:18;6.13;;;5.63;;
17917;SDS011;9084;50.956;3.106;2023-04-02T10:50:59;5.03;;;4.63;;
17917;SDS011;9084;50.956;3.106;2023-04-02T10:53:43;6.88;;;5.28;;
17917;SDS011;9084;50.956;3.106;2023-04-02T10:56:31;4.35;;;3.92;;
17917;SDS011;9084;50.956;3.106;2023-04-02T10:58:58;6.18;;;3.83;;
17917;SDS011;9084;50.956;3.106;2023-04-02T11:01:30;5.28;;;3.40;;
17917;SDS011;9084;50.956;3.106;2023-04-02T11:06:31;3.38;;;3.10;;
17917;SDS011;9084;50.956;3.106;2023-04-02T11:09:06;3.90;;;2.50;;
17917;SDS011;9084;50.956;3.106;2023-04-02T11:11:43;2.80;;;2.60;;
17917;SDS011;9084;50.956;3.106;2023-04-02T11:14:21;3.10;;;2.80;;
17917;SDS011;9084;50.956;3.106;2023-04-02T11:16:49;3.50;;;3.13;;
17917;SDS011;9084;50.956;3.106;2023-04-02T11:42:43;3.42;;;3.10;;
17917;SDS011;9084;50.956;3.106;2023-04-02T11:50:41;3.63;;;3.38;;
17917;SDS011;9084;50.956;3.106;2023-04-02T12:00:59;4.75;;;4.35;;
17917;SDS011;9084;50.956;3.106;2023-04-02T12:11:40;3.95;;;3.65;;
17917;SDS011;9084;50.956;3.106;2023-04-02T12:16:57;4.50;;;4.10;;
17917;SDS011;9084;50.956;3.106;2023-04-02T12:19:23;3.70;;;3.40;;
17917;SDS011;9084;50.956;3.106;2023-04-02T12:21:51;4.65;;;4.03;;
17917;SDS011;9084;50.956;3.106;2023-04-02T12:24:21;3.80;;;3.15;;
17917;SDS011;9084;50.956;3.106;2023-04-02T12:26:48;4.82;;;3.38;;
17917;SDS011;9084;50.956;3.106;2023-04-02T12:29:35;4.65;;;3.67;;
17917;SDS011;9084;50.956;3.106;2023-04-02T12:32:07;4.40;;;4.05;;
17917;SDS011;9084;50.956;3.106;2023-04-02T12:34:45;4.68;;;4.28;;
17917;SDS011;9084;50.956;3.106;2023-04-02T12:37:17;5.53;;;5.13;;
17917;SDS011;9084;50.956;3.106;2023-04-02T12:39:59;5.85;;;5.35;;
17917;SDS011;9084;50.956;3.106;2023-04-02T12:42:34;6.50;;;6.00;;
17917;SDS011;9084;50.956;3.106;2023-04-02T12:45:02;6.43;;;5.93;;
17917;SDS011;9084;50.956;3.106;2023-04-02T12:47:29;6.20;;;5.78;;
17917;SDS011;9084;50.956;3.106;2023-04-02T12:49:55;5.82;;;5.28;;
17917;SDS011;9084;50.956;3.106;2023-04-02T12:52:24;5.85;;;5.35;;
17917;SDS011;9084;50.956;3.106;2023-04-02T12:55:02;6.15;;;5.68;;
17917;SDS011;9084;50.956;3.106;2023-04-02T12:57:31;7.57;;;6.85;;
17917;SDS011;9084;50.956;3.106;2023-04-02T12:59:59;6.53;;;6.07;;
17917;SDS011;9084;50.956;3.106;2023-04-02T13:02:57;7.43;;;6.72;;
17917;SDS011;9084;50.956;3.106;2023-04-02T13:05:49;6.28;;;5.78;;
17917;SDS011;9084;50.956;3.106;2023-04-02T13:08:22;7.22;;;6.53;;
17917;SDS011;9084;50.956;3.106;2023-04-02T13:10:52;6.68;;;6.05;;
17917;SDS011;9084;50.956;3.106;2023-04-02T13:13:24;6.03;;;5.63;;
17917;SDS011;9084;50.956;3.106;2023-04-02T13:16:04;5.97;;;5.47;;
17917;SDS011;9084;50.956;3.106;2023-04-02T13:18:31;5.07;;;4.72;;
17917;SDS011;9084;50.956;3.106;2023-04-02T13:21:03;3.92;;;3.63;;
17917;SDS011;9084;50.956;3.106;2023-04-02T13:23:48;4.43;;;4.03;;
17917;SDS011;9084;50.956;3.106;2023-04-02T13:26:17;3.83;;;3.53;;
17917;SDS011;9084;50.956;3.106;2023-04-02T13:29:12;3.25;;;3.00;;
17917;SDS011;9084;50.956;3.106;2023-04-02T13:31:42;3.83;;;3.53;;
17917;SDS011;9084;50.956;3.106;2023-04-02T13:34:08;3.90;;;3.50;;
17917;SDS011;9084;50.956;3.106;2023-04-02T13:36:36;4.78;;;4.38;;
17917;SDS011;9084;50.956;3.106;2023-04-02T13:39:02;3.58;;;3.38;;
17917;SDS011;9084;50.956;3.106;2023-04-02T13:41:29;4.20;;;3.67;;
17917;SDS011;9084;50.956;3.106;2023-04-02T13:44:02;3.88;;;3.60;;
17917;SDS011;9084;50.956;3.106;2023-04-02T13:46:33;4.32;;;3.85;;
17917;SDS011;9084;50.956;3.106;2023-04-02T13:48:59;4.03;;;3.72;;
17917;SDS011;9084;50.956;3.106;2023-04-02T13:51:34;4.68;;;4.22;;
17917;SDS011;9084;50.956;3.106;2023-04-02T13:54:06;4.55;;;4.15;;
17917;SDS011;9084;50.956;3.106;2023-04-02T13:56:37;3.83;;;3.53;;
17917;SDS011;9084;50.956;3.106;2023-04-02T13:59:04;4.53;;;4.15;;
17917;SDS011;9084;50.956;3.106;2023-04-02T14:01:32;4.53;;;4.22;;
17917;SDS011;9084;50.956;3.106;2023-04-02T14:04:01;5.40;;;4.90;;
17917;SDS011;9084;50.956;3.106;2023-04-02T14:17:26;5.60;;;5.20;;
17917;SDS011;9084;50.956;3.106;2023-04-02T14:29:00;4.68;;;4.38;;
17917;SDS011;9084;50.956;3.106;2023-04-02T14:31:51;3.97;;;3.67;;
17917;SDS011;9084;50.956;3.106;2023-04-02T14:34:39;3.95;;;3.50;;
17917;SDS011;9084;50.956;3.106;2023-04-02T14:37:24;3.90;;;3.03;;
17917;SDS011;9084;50.956;3.106;2023-04-02T14:40:28;2.95;;;2.70;;
17917;SDS011;9084;50.956;3.106;2023-04-02T14:43:23;3.70;;;3.40;;
17917;SDS011;9084;50.956;3.106;2023-04-02T14:57:04;2.70;;;2.50;;
17917;SDS011;9084;50.956;3.106;2023-04-02T14:59:51;3.00;;;2.67;;
17917;SDS011;9084;50.956;3.106;2023-04-02T15:02:22;2.65;;;2.30;;
17917;SDS011;9084;50.956;3.106;2023-04-02T15:05:02;3.88;;;2.45;;
17917;SDS011;9084;50.956;3.106;2023-04-02T15:07:42;2.72;;;2.42;;
17917;SDS011;9084;50.956;3.106;2023-04-02T15:10:34;2.75;;;2.55;;
17917;SDS011;9084;50.956;3.106;2023-04-02T15:13:06;2.42;;;2.25;;
17917;SDS011;9084;50.956;3.106;2023-04-02T15:15:51;2.38;;;2.28;;
17917;SDS011;9084;50.956;3.106;2023-04-02T15:18:20;2.33;;;2.13;;
17917;SDS011;9084;50.956;3.106;2023-04-02T15:23:37;2.58;;;2.38;;
17917;SDS011;9084;50.956;3.106;2023-04-02T15:35:15;1.70;;;1.60;;
17917;SDS011;9084;50.956;3.106;2023-04-02T15:40:52;2.58;;;2.38;;
17917;SDS011;9084;50.956;3.106;2023-04-02T15:43:23;6.07;;;2.63;;
17917;SDS011;9084;50.956;3.106;2023-04-02T15:48:57;3.35;;;2.53;;
17917;SDS011;9084;50.956;3.106;2023-04-02T16:10:39;4.30;;;3.90;;
17917;SDS011;9084;50.956;3.106;2023-04-02T16:13:21;4.18;;;3.88;;
17917;SDS011;9084;50.956;3.106;2023-04-02T16:16:04;4.55;;;4.25;;
17917;SDS011;9084;50.956;3.106;2023-04-02T16:21:33;4.82;;;3.55;;
17917;SDS011;9084;50.956;3.106;2023-04-02T16:24:10;3.85;;;3.50;;
17917;SDS011;9084;50.956;3.106;2023-04-02T16:26:42;4.22;;;3.92;;
17917;SDS011;9084;50.956;3.106;2023-04-02T16:29:45;5.20;;;4.70;;
17917;SDS011;9084;50.956;3.106;2023-04-02T16:37:38;4.60;;;4.20;;
17917;SDS011;9084;50.956;3.106;2023-04-02T16:42:57;4.68;;;4.18;;
17917;SDS011;9084;50.956;3.106;2023-04-02T16:51:03;4.80;;;4.38;;
17917;SDS011;9084;50.956;3.106;2023-04-02T16:56:31;7.32;;;3.85;;
17917;SDS011;9084;50.956;3.106;2023-04-02T17:01:54;26.17;;;24.45;;
17917;SDS011;9084;50.956;3.106;2023-04-02T17:07:17;5.10;;;4.55;;
17917;SDS011;9084;50.956;3.106;2023-04-02T17:10:25;4.93;;;4.38;;
17917;SDS011;9084;50.956;3.106;2023-04-02T17:13:10;4.95;;;4.32;;
17917;SDS011;9084;50.956;3.106;2023-04-02T17:16:05;28.25;;;25.33;;
17917;SDS011;9084;50.956;3.106;2023-04-02T17:18:37;6.07;;;5.57;;
17917;SDS011;9084;50.956;3.106;2023-04-02T17:21:09;5.18;;;4.80;;
17917;SDS011;9084;50.956;3.106;2023-04-02T17:23:43;4.90;;;4.50;;
17917;SDS011;9084;50.956;3.106;2023-04-02T17:26:13;9.10;;;8.40;;
17917;SDS011;9084;50.956;3.106;2023-04-02T17:28:43;6.10;;;5.55;;
17917;SDS011;9084;50.956;3.106;2023-04-02T17:31:18;4.75;;;4.30;;
17917;SDS011;9084;50.956;3.106;2023-04-02T17:33:46;5.88;;;5.22;;
17917;SDS011;9084;50.956;3.106;2023-04-02T17:36:28;8.40;;;7.70;;
17917;SDS011;9084;50.956;3.106;2023-04-02T17:47:36;8.30;;;7.50;;
17917;SDS011;9084;50.956;3.106;2023-04-02T17:58:46;5.57;;;5.07;;
17917;SDS011;9084;50.956;3.106;2023-04-02T18:04:35;6.10;;;5.60;;
17917;SDS011;9084;50.956;3.106;2023-04-02T18:12:55;6.18;;;5.57;;
17917;SDS011;9084;50.956;3.106;2023-04-02T18:21:10;8.47;;;7.77;;
17917;SDS011;9084;50.956;3.106;2023-04-02T18:23:57;8.17;;;7.47;;
17917;SDS011;9084;50.956;3.106;2023-04-02T18:43:36;8.50;;;7.77;;
17917;SDS011;9084;50.956;3.106;2023-04-02T18:46:20;11.20;;;10.20;;
17917;SDS011;9084;50.956;3.106;2023-04-02T18:51:47;17.10;;;15.50;;
17917;SDS011;9084;50.956;3.106;2023-04-02T18:56:54;15.50;;;14.20;;
17917;SDS011;9084;50.956;3.106;2023-04-02T19:02:29;17.40;;;15.90;;
17917;SDS011;9084;50.956;3.106;2023-04-02T19:04:58;14.73;;;13.27;;
17917;SDS011;9084;50.956;3.106;2023-04-02T19:07:28;15.73;;;14.33;;
17917;SDS011;9084;50.956;3.106;2023-04-02T19:10:01;16.43;;;14.93;;
17917;SDS011;9084;50.956;3.106;2023-04-02T19:12:51;14.20;;;13.00;;
17917;SDS011;9084;50.956;3.106;2023-04-02T19:15:17;15.93;;;14.53;;
17917;SDS011;9084;50.956;3.106;2023-04-02T19:20:47;15.07;;;13.73;;
17917;SDS011;9084;50.956;3.106;2023-04-02T19:23:30;14.13;;;12.83;;
17917;SDS011;9084;50.956;3.106;2023-04-02T19:26:12;13.30;;;12.10;;
17917;SDS011;9084;50.956;3.106;2023-04-02T19:29:02;11.50;;;10.50;;
17917;SDS011;9084;50.956;3.106;2023-04-02T19:35:21;9.70;;;8.80;;
17917;SDS011;9084;50.956;3.106;2023-04-02T19:45:30;10.63;;;9.53;;
17917;SDS011;9084;50.956;3.106;2023-04-02T19:47:58;10.43;;;9.63;;
17917;SDS011;9084;50.956;3.106;2023-04-02T19:50:32;11.37;;;9.83;;
17917;SDS011;9084;50.956;3.106;2023-04-02T19:52:59;10.73;;;9.77;;
17917;SDS011;9084;50.956;3.106;2023-04-02T19:55:28;10.63;;;9.67;;
17917;SDS011;9084;50.956;3.106;2023-04-02T19:57:55;11.87;;;10.87;;
17917;SDS011;9084;50.956;3.106;2023-04-02T20:00:23;13.00;;;11.87;;
17917;SDS011;9084;50.956;3.106;2023-04-02T20:02:49;12.33;;;11.27;;
17917;SDS011;9084;50.956;3.106;2023-04-02T20:05:15;14.77;;;13.27;;
17917;SDS011;9084;50.956;3.106;2023-04-02T20:07:40;16.73;;;15.07;;
17917;SDS011;9084;50.956;3.106;2023-04-02T20:10:08;15.40;;;14.10;;
17917;SDS011;9084;50.956;3.106;2023-04-02T20:12:35;14.10;;;12.83;;
17917;SDS011;9084;50.956;3.106;2023-04-02T20:15:01;12.20;;;11.13;;
17917;SDS011;9084;50.956;3.106;2023-04-02T20:17:31;10.20;;;9.40;;
17917;SDS011;9084;50.956;3.106;2023-04-02T20:19:57;9.37;;;8.50;;
17917;SDS011;9084;50.956;3.106;2023-04-02T20:22:25;8.90;;;8.03;;
17917;SDS011;9084;50.956;3.106;2023-04-02T20:24:53;8.33;;;7.53;;
17917;SDS011;9084;50.956;3.106;2023-04-02T20:27:19;8.47;;;7.67;;
17917;SDS011;9084;50.956;3.106;2023-04-02T20:29:44;8.37;;;7.60;;
17917;SDS011;9084;50.956;3.106;2023-04-02T20:32:12;8.47;;;7.57;;
17917;SDS011;9084;50.956;3.106;2023-04-02T20:34:38;8.43;;;7.63;;
17917;SDS011;9084;50.956;3.106;2023-04-02T20:37:04;8.97;;;8.17;;
17917;SDS011;9084;50.956;3.106;2023-04-02T20:39:30;8.20;;;7.40;;
17917;SDS011;9084;50.956;3.106;2023-04-02T20:41:56;8.50;;;7.57;;
17917;SDS011;9084;50.956;3.106;2023-04-02T20:44:28;8.37;;;7.40;;
17917;SDS011;9084;50.956;3.106;2023-04-02T20:46:56;8.87;;;7.70;;
17917;SDS011;9084;50.956;3.106;2023-04-02T20:49:22;7.77;;;6.97;;
17917;SDS011;9084;50.956;3.106;2023-04-02T20:51:47;7.57;;;6.73;;
17917;SDS011;9084;50.956;3.106;2023-04-02T20:54:13;7.93;;;7.07;;
17917;SDS011;9084;50.956;3.106;2023-04-02T20:56:39;7.87;;;7.17;;
17917;SDS011;9084;50.956;3.106;2023-04-02T20:59:07;9.73;;;8.70;;
17917;SDS011;9084;50.956;3.106;2023-04-02T21:01:35;10.73;;;8.67;;
17917;SDS011;9084;50.956;3.106;2023-04-02T21:04:02;11.33;;;9.83;;
17917;SDS011;9084;50.956;3.106;2023-04-02T21:06:29;11.00;;;9.87;;
17917;SDS011;9084;50.956;3.106;2023-04-02T21:08:56;11.33;;;10.17;;
17917;SDS011;9084;50.956;3.106;2023-04-02T21:11:22;13.40;;;10.10;;
17917;SDS011;9084;50.956;3.106;2023-04-02T21:13:48;12.47;;;10.77;;
17917;SDS011;9084;50.956;3.106;2023-04-02T21:18:48;9.93;;;8.93;;
17917;SDS011;9084;50.956;3.106;2023-04-02T21:21:15;10.40;;;9.40;;
17917;SDS011;9084;50.956;3.106;2023-04-02T21:23:42;13.47;;;9.77;;